Terminal Aerodrome Forecast
Issued by NWS Cheyenne, WY

Home | Current Version | Previous Version | Text Only | Print | Product List | Glossary On
Versions: 1 2 3 4 5 6 7 8 9 10 11 12 13 14 15 16 17 18 19 20 21 22 23 24 25 26 27 28 29 30 31 32
314
FTUS45 KCYS 272324
TAFCYS
TAF
KCYS 272324Z 2800/2824 09008KT P6SM VCTS BKN100CB
     FM280200 11009KT P6SM BKN080
     FM280800 24008KT 5SM BR SCT015
     FM281400 32008KT P6SM BKN100=

USA.gov is the U.S. government's official web portal to all federal, state and local government web resources and services.